createdAt,value
2018-02-19T00:33:07.671Z,98932.35
2018-02-19T00:53:44.777Z,98904.63
2018-02-19T01:14:19.237Z,98893.73
2018-02-19T01:34:55.329Z,98870.65
2018-02-19T01:55:28.440Z,98846.60
2018-02-19T02:16:02.793Z,98824.55
2018-02-19T02:36:36.837Z,98828.03
2018-02-19T02:57:10.267Z,98807.36
2018-02-19T03:17:44.559Z,98780.73
2018-02-19T03:38:25.722Z,98758.39
2018-02-19T03:58:58.850Z,98749.55
2018-02-19T04:19:34.321Z,98747.34
2018-02-19T04:40:07.234Z,98739.75
2018-02-19T05:00:44.662Z,98737.59
2018-02-19T05:21:17.967Z,98709.62
2018-02-19T05:41:53.200Z,98704.45
2018-02-19T06:02:28.012Z,98706.98
2018-02-19T06:23:02.366Z,98713.11
2018-02-19T06:43:37.634Z,98719.33
2018-02-19T07:04:15.673Z,98705.42
2018-02-19T07:24:51.882Z,98703.03
2018-02-19T07:45:30.639Z,98691.36
2018-02-19T08:06:06.740Z,98684.63
2018-02-19T08:26:40.751Z,98666.92
2018-02-19T08:47:16.950Z,98646.27
2018-02-19T09:07:49.143Z,98628.02
2018-02-19T09:28:21.651Z,98614.52
2018-02-19T09:48:54.960Z,98614.85
2018-02-19T10:09:27.894Z,98607.23
2018-02-19T10:30:03.475Z,98590.89
2018-02-19T10:50:42.687Z,98578.05
2018-02-19T11:11:14.928Z,98553.89
2018-02-19T11:31:59.115Z,98561.28
2018-02-19T11:52:34.080Z,98541.61
2018-02-19T12:13:08.428Z,98511.53
2018-02-19T12:33:39.708Z,98463.92
2018-02-19T12:54:11.905Z,98460.70
2018-02-19T13:14:49.020Z,98442.91
2018-02-19T13:35:24.294Z,98438.07
2018-02-19T13:56:00.540Z,98407.19
2018-02-19T14:16:36.681Z,98393.02
2018-02-19T14:37:16.272Z,98389.75
2018-02-19T14:57:49.068Z,98378.80
2018-02-19T15:18:33.551Z,98366.34
2018-02-19T15:39:12.817Z,98368.03
2018-02-19T15:59:49.013Z,98370.25
2018-02-19T16:20:23.362Z,98359.83
2018-02-19T16:40:59.905Z,98369.41
2018-02-19T17:01:35.751Z,98356.81
2018-02-19T17:22:08.873Z,98355.09
2018-02-19T17:42:42.304Z,98351.88
2018-02-19T18:03:14.780Z,98352.20
2018-02-19T18:23:48.557Z,98341.13
2018-02-19T18:44:25.102Z,98331.06
2018-02-19T19:04:59.399Z,98343.12
2018-02-19T19:25:35.288Z,98343.08
2018-02-19T19:46:10.559Z,98354.63
2018-02-19T20:06:46.752Z,98339.51
2018-02-19T20:27:23.867Z,98338.73
2018-02-19T20:48:01.292Z,98330.23
2018-02-19T21:08:33.489Z,98311.94
2018-02-19T21:29:14.018Z,98303.42
2018-02-19T21:49:48.952Z,98291.56
2018-02-19T22:10:22.163Z,98281.21
2018-02-19T22:30:57.963Z,98274.34
2018-02-19T22:51:33.542Z,98271.37
2018-02-19T23:12:06.967Z,98270.89
2018-02-19T23:32:40.088Z,98274.77
2018-02-19T23:53:15.362Z,98271.82
